BOH weather

Bournemouth Airport
Bournemouth, England, United Kingdom

Public forecast

Using degrees Celsius for public forecast. Weather courtesy of forecast.io.

Current aviation weather report (METAR) for Bournemouth Airport

Retrieved 2019/10/22 09:20 UTC (27 minutes ago):

EGHH 220920Z 36001KT 9000 NSC 08/08 Q1024

Aviation forecast (TAF) for Bournemouth Airport

Forecast is more than 12 hours old.

Retrieved 2013/12/01 21:21 UTC (6 years ago):

TAF TAF EGHH 010016Z 3021/0106 CNL